Time;durP1;ratioP1;P1;durP2;ratioP2;P2;SDS_P1;SDS_P2;PMS_P1;PMS_P2;Temp;Humidity;BMP_temperature;BMP_pressure;BME280_temperature;BME280_humidity;BME280_pressure;Samples;Min_cycle;Max_cycle;Signal;HPM_P1;HPM_P2
2021/08/20 00:01:41;;;;;;;6.88;2.72;;;;;;;16.76;61.01;97410.66;5054680;28;20033;-74
2021/08/20 00:04:07;;;;;;;6.65;2.60;;;;;;;16.67;61.31;97403.38;5071010;28;20104;-74
2021/08/20 00:06:35;;;;;;;9.65;2.63;;;;;;;16.77;61.06;97409.63;5070716;28;20047;-74
2021/08/20 00:09:01;;;;;;;4.88;2.50;;;;;;;16.87;60.80;97405.13;5054178;28;20033;-74
2021/08/20 00:11:27;;;;;;;4.65;2.70;;;;;;;16.88;60.69;97414.97;5070982;28;20031;-74
2021/08/20 00:13:52;;;;;;;8.65;2.50;;;;;;;16.79;60.41;97413.06;5071065;28;20085;-75
2021/08/20 00:16:18;;;;;;;3.38;2.42;;;;;;;16.69;60.15;97404.06;5054069;28;20028;-74
2021/08/20 00:18:43;;;;;;;5.90;2.60;;;;;;;16.64;60.51;97409.88;5070840;28;20033;-74
2021/08/20 00:21:10;;;;;;;4.35;2.72;;;;;;;16.64;60.80;97417.97;5072078;28;20036;-74
2021/08/20 00:23:35;;;;;;;6.22;3.00;;;;;;;16.73;60.55;97414.44;5070470;28;20056;-73
2021/08/20 00:26:01;;;;;;;4.70;2.58;;;;;;;16.77;60.42;97410.50;5071347;28;20511;-72
2021/08/20 00:28:26;;;;;;;8.32;2.60;;;;;;;16.83;60.40;97406.38;5070480;28;20032;-72
2021/08/20 00:30:52;;;;;;;6.45;2.60;;;;;;;16.83;60.56;97406.38;5071888;28;20025;-73
2021/08/20 00:33:17;;;;;;;4.10;2.40;;;;;;;16.86;60.48;97402.59;5087200;28;20107;-72
2021/08/20 00:35:43;;;;;;;12.05;2.92;;;;;;;16.86;60.26;97408.81;5071268;28;20115;-72
2021/08/20 00:38:09;;;;;;;3.95;2.75;;;;;;;16.72;61.19;97410.06;5071723;28;20029;-72
2021/08/20 00:40:35;;;;;;;3.30;2.40;;;;;;;16.62;61.90;97416.41;5071470;28;20430;-72
2021/08/20 00:43:00;;;;;;;7.47;2.63;;;;;;;16.58;61.70;97412.28;5070339;28;20024;-72
2021/08/20 00:45:26;;;;;;;5.43;2.83;;;;;;;16.52;62.45;97410.91;5070436;28;20040;-72
2021/08/20 00:47:51;;;;;;;6.15;3.03;;;;;;;16.54;62.53;97409.00;5054040;28;20059;-72
2021/08/20 00:50:17;;;;;;;4.72;2.83;;;;;;;16.56;63.30;97412.41;5070497;28;20518;-72
2021/08/20 00:52:43;;;;;;;5.03;3.00;;;;;;;16.46;64.10;97411.47;5070302;28;21735;-72
2021/08/20 00:55:10;;;;;;;8.88;3.60;;;;;;;16.45;64.62;97403.50;5071543;28;20028;-72
2021/08/20 00:57:36;;;;;;;5.03;3.08;;;;;;;16.39;64.84;97407.59;5070281;28;20029;-72
2021/08/20 01:00:02;;;;;;;4.50;2.80;;;;;;;16.38;64.69;97411.28;5070277;28;20031;-73
2021/08/20 01:02:28;;;;;;;8.57;2.85;;;;;;;16.35;64.52;97405.28;5071311;28;20047;-73
2021/08/20 01:04:53;;;;;;;7.65;3.20;;;;;;;16.23;65.21;97401.81;5070171;28;20472;-73
2021/08/20 01:07:19;;;;;;;7.03;2.80;;;;;;;16.21;65.71;97401.13;5071401;28;20480;-73
2021/08/20 01:09:46;;;;;;;7.50;3.10;;;;;;;16.22;66.21;97392.00;5086914;28;20028;-73
2021/08/20 01:12:12;;;;;;;6.70;3.00;;;;;;;16.24;68.22;97392.75;5053379;28;20152;-73
2021/08/20 01:14:37;;;;;;;6.90;2.80;;;;;;;16.20;68.43;97399.41;5071195;28;20462;-73
2021/08/20 01:17:05;;;;;;;8.75;3.45;;;;;;;16.17;69.13;97399.66;5070312;28;20036;-73
2021/08/20 01:19:32;;;;;;;12.32;3.10;;;;;;;16.09;69.56;97396.75;5070029;28;20035;-72
2021/08/20 01:21:58;;;;;;;8.27;3.35;;;;;;;16.08;69.55;97405.84;5069896;28;20029;-73
2021/08/20 01:24:24;;;;;;;5.20;3.25;;;;;;;16.03;69.69;97397.28;5069869;28;20564;-71
2021/08/20 01:26:51;;;;;;;5.38;3.28;;;;;;;15.94;70.18;97392.69;5069745;28;20124;-73
2021/08/20 01:29:17;;;;;;;8.07;3.40;;;;;;;15.91;70.29;97398.34;5070085;28;20020;-73
2021/08/20 01:31:46;;;;;;;15.60;3.28;;;;;;;15.89;70.16;97394.94;5069868;28;20411;-74
2021/08/20 01:34:13;;;;;;;8.90;3.33;;;;;;;15.88;69.83;97412.09;5069887;28;20082;-74
2021/08/20 01:36:38;;;;;;;7.75;3.00;;;;;;;15.78;70.08;97408.50;5070774;28;20040;-74
2021/08/20 01:39:05;;;;;;;5.65;3.28;;;;;;;15.71;70.23;97410.84;5073599;28;20480;-71
2021/08/20 01:41:31;;;;;;;9.27;3.47;;;;;;;15.79;70.46;97410.19;5073498;28;20060;-73
2021/08/20 01:44:00;;;;;;;12.75;3.83;;;;;;;15.81;71.17;97416.31;5090405;28;20407;-74
2021/08/20 01:46:27;;;;;;;6.00;3.03;;;;;;;15.75;70.95;97409.56;5073443;28;20037;-73
2021/08/20 01:48:55;;;;;;;8.68;4.10;;;;;;;15.71;70.97;97413.53;5073239;28;20036;-72
2021/08/20 01:51:21;;;;;;;6.80;3.22;;;;;;;15.65;70.99;97409.53;5073645;28;20029;-72
2021/08/20 01:53:48;;;;;;;8.73;3.40;;;;;;;15.65;71.19;97404.13;5073346;28;20568;-73
2021/08/20 01:56:18;;;;;;;7.53;3.50;;;;;;;15.67;71.25;97402.16;5073365;28;20028;-72
2021/08/20 01:58:47;;;;;;;10.05;3.60;;;;;;;15.61;70.43;97399.97;5074585;28;20035;-72
2021/08/20 02:01:13;;;;;;;8.52;3.60;;;;;;;15.50;70.43;97416.22;5073435;28;20059;-72
2021/08/20 02:03:39;;;;;;;5.93;3.50;;;;;;;15.30;70.94;97406.19;5073211;28;20109;-72
2021/08/20 02:06:05;;;;;;;6.10;3.17;;;;;;;15.16;71.65;97404.63;5073062;28;20025;-73
2021/08/20 02:08:30;;;;;;;6.55;3.53;;;;;;;15.17;71.94;97408.19;5073099;28;20020;-72
2021/08/20 02:10:56;;;;;;;8.32;3.10;;;;;;;15.11;72.58;97409.56;5056343;28;20029;-73
2021/08/20 02:13:22;;;;;;;7.68;2.92;;;;;;;15.13;72.54;97412.97;5073170;28;20563;-72
2021/08/20 02:15:48;;;;;;;9.48;3.10;;;;;;;15.03;72.71;97406.63;5074371;28;20545;-72
2021/08/20 02:18:14;;;;;;;11.13;3.72;;;;;;;15.05;73.03;97411.88;5073007;28;20029;-72
2021/08/20 02:20:40;;;;;;;6.95;3.35;;;;;;;15.04;72.52;97412.88;5074092;28;20090;-72
2021/08/20 02:23:08;;;;;;;8.05;3.50;;;;;;;15.00;72.67;97411.41;5073698;28;20024;-72
2021/08/20 02:25:33;;;;;;;4.93;2.88;;;;;;;15.07;72.19;97418.03;5074098;28;20522;-72
2021/08/20 02:27:59;;;;;;;7.28;3.22;;;;;;;15.04;71.61;97415.59;5056105;28;20032;-72
2021/08/20 02:30:25;;;;;;;6.45;3.17;;;;;;;14.97;71.24;97417.06;5073894;28;20112;-73
2021/08/20 02:32:50;;;;;;;5.57;3.25;;;;;;;14.90;71.70;97421.22;5073759;28;20031;-74
2021/08/20 02:35:16;;;;;;;5.50;3.10;;;;;;;14.80;72.40;97409.47;5073941;28;20146;-72
2021/08/20 02:37:42;;;;;;;7.63;3.58;;;;;;;14.77;72.93;97410.59;5056296;28;20024;-73
2021/08/20 02:40:08;;;;;;;11.40;3.72;;;;;;;14.81;73.31;97417.44;5072357;28;20033;-72
2021/08/20 02:42:33;;;;;;;5.03;3.10;;;;;;;14.86;73.44;97412.53;5073593;28;20504;-72
2021/08/20 02:44:59;;;;;;;8.23;3.60;;;;;;;14.80;73.62;97410.34;5072273;28;20044;-72
2021/08/20 02:47:24;;;;;;;5.88;3.40;;;;;;;14.83;73.65;97415.47;5072532;28;20033;-74
2021/08/20 02:49:50;;;;;;;14.60;3.40;;;;;;;14.83;73.91;97411.91;5072917;28;20094;-72
2021/08/20 02:52:15;;;;;;;5.07;3.15;;;;;;;14.82;74.01;97410.22;5072278;28;20021;-73
2021/08/20 02:54:41;;;;;;;18.95;4.05;;;;;;;14.93;73.58;97407.50;5073508;28;20435;-72
2021/08/20 02:57:06;;;;;;;33.33;11.50;;;;;;;14.98;73.40;97413.41;5071895;28;20503;-72
2021/08/20 02:59:32;;;;;;;42.03;14.25;;;;;;;14.96;73.10;97415.34;5073364;28;20051;-73
2021/08/20 03:01:58;;;;;;;59.05;14.65;;;;;;;14.98;72.58;97418.78;5071775;28;20040;-73
2021/08/20 03:04:25;;;;;;;20.33;6.15;;;;;;;14.91;72.56;97414.88;5073189;28;20036;-72
2021/08/20 03:06:51;;;;;;;34.58;10.68;;;;;;;14.82;73.11;97421.00;5055105;28;20036;-73
2021/08/20 03:09:19;;;;;;;17.55;7.50;;;;;;;14.71;74.36;97421.00;5073114;28;20024;-73
2021/08/20 03:11:45;;;;;;;7.38;4.20;;;;;;;14.62;74.94;97410.00;5071976;28;20104;-73
2021/08/20 03:14:11;;;;;;;24.58;11.50;;;;;;;14.58;75.28;97421.97;5054849;28;20032;-73
2021/08/20 03:16:36;;;;;;;13.15;5.28;;;;;;;14.45;75.41;97426.66;5073031;28;20407;-72
2021/08/20 03:19:02;;;;;;;12.40;6.53;;;;;;;14.44;74.98;97422.22;5072661;28;20119;-72
2021/08/20 03:21:28;;;;;;;9.65;5.07;;;;;;;14.40;74.73;97419.91;5072704;28;20035;-72
2021/08/20 03:23:54;;;;;;;9.95;4.00;;;;;;;14.51;74.10;97425.31;5072800;28;20045;-72
2021/08/20 03:26:19;;;;;;;10.15;3.97;;;;;;;14.44;74.21;97427.63;5071074;28;20473;-72
2021/08/20 03:28:45;;;;;;;7.97;3.97;;;;;;;14.56;74.11;97426.63;5088637;28;20107;-72
2021/08/20 03:31:11;;;;;;;9.13;3.65;;;;;;;14.53;73.84;97418.81;5072372;28;20503;-72
2021/08/20 03:33:36;;;;;;;7.97;3.80;;;;;;;14.61;73.81;97432.50;5072483;28;20144;-72
2021/08/20 03:36:02;;;;;;;12.05;4.68;;;;;;;14.56;73.84;97434.72;5070955;28;20133;-72
2021/08/20 03:38:27;;;;;;;15.15;5.43;;;;;;;14.63;74.01;97444.03;5072265;28;20522;-72
2021/08/20 03:40:53;;;;;;;8.48;4.43;;;;;;;14.74;73.97;97450.34;5070853;28;20059;-73
2021/08/20 03:43:18;;;;;;;11.88;3.47;;;;;;;14.80;73.67;97460.63;5071237;28;20484;-72
2021/08/20 03:45:44;;;;;;;10.90;4.25;;;;;;;14.83;74.01;97453.19;5072376;28;20044;-71
2021/08/20 03:48:10;;;;;;;15.90;9.27;;;;;;;14.92;74.32;97454.31;5072078;28;20115;-72
2021/08/20 03:50:35;;;;;;;6.55;3.88;;;;;;;15.04;73.58;97453.31;5071952;28;20448;-72
2021/08/20 03:53:01;;;;;;;9.77;4.00;;;;;;;15.06;73.48;97456.72;5070796;28;20032;-72
2021/08/20 03:55:26;;;;;;;20.48;4.38;;;;;;;15.08;73.35;97460.13;5070784;28;20085;-71
2021/08/20 03:57:57;;;;;;;17.63;4.47;;;;;;;15.22;73.40;97465.28;5071021;28;20029;-72
2021/08/20 04:00:23;;;;;;;6.88;3.78;;;;;;;15.28;72.89;97470.16;5071732;28;20032;-72
2021/08/20 04:02:48;;;;;;;10.40;4.78;;;;;;;15.20;73.24;97461.81;5070713;28;20037;-71
2021/08/20 04:05:14;;;;;;;10.27;4.32;;;;;;;15.22;73.45;97459.00;5071583;28;20028;-70
2021/08/20 04:07:39;;;;;;;30.08;7.07;;;;;;;15.34;72.50;97466.94;5069858;28;20036;-71
2021/08/20 04:10:05;;;;;;;13.43;5.53;;;;;;;15.35;71.87;97475.91;5068788;28;20054;-71
2021/08/20 04:12:31;;;;;;;14.13;5.13;;;;;;;15.32;71.93;97476.97;5069684;28;20012;-71
2021/08/20 04:14:56;;;;;;;15.15;6.00;;;;;;;15.28;71.64;97477.38;5069663;28;20400;-71
2021/08/20 04:17:40;;;;;;;14.60;7.05;;;;;;;15.20;71.17;97478.00;5069590;28;20028;-71
2021/08/20 04:20:06;;;;;;;15.50;7.82;;;;;;;15.06;71.17;97475.56;5071026;28;20488;-71
2021/08/20 04:22:32;;;;;;;17.40;9.50;;;;;;;15.17;71.14;97481.78;5069859;28;20036;-71
2021/08/20 04:24:58;;;;;;;16.77;8.57;;;;;;;15.13;71.64;97477.63;5071044;28;20033;-71
2021/08/20 04:27:23;;;;;;;21.00;9.80;;;;;;;15.15;71.42;97483.78;5070115;28;20377;-71
2021/08/20 04:29:49;;;;;;;23.45;8.40;;;;;;;15.20;71.16;97478.00;5053321;28;20027;-72
2021/08/20 04:32:14;;;;;;;20.38;9.55;;;;;;;15.18;71.16;97485.34;5071047;28;20099;-72
2021/08/20 04:34:40;;;;;;;18.33;8.35;;;;;;;15.23;70.85;97483.13;5070144;28;20031;-71
2021/08/20 04:37:05;;;;;;;18.73;8.32;;;;;;;15.26;70.92;97473.97;5071173;28;20116;-71
2021/08/20 04:39:31;;;;;;;27.95;8.90;;;;;;;15.35;70.17;97484.81;5069689;28;20452;-71
2021/08/20 04:41:56;;;;;;;18.10;9.27;;;;;;;15.41;69.71;97486.19;5052932;28;20020;-71
2021/08/20 04:44:22;;;;;;;18.60;8.20;;;;;;;15.44;69.57;97492.16;5070824;28;20032;-71
2021/08/20 04:46:47;;;;;;;21.13;8.10;;;;;;;15.52;69.79;97480.78;5071247;28;20035;-71
2021/08/20 04:49:13;;;;;;;17.42;7.97;;;;;;;15.65;69.23;97485.03;5071011;28;20029;-70
2021/08/20 04:51:39;;;;;;;14.98;7.13;;;;;;;15.67;68.70;97492.97;5070123;28;20017;-72
2021/08/20 04:54:05;;;;;;;18.23;7.88;;;;;;;15.79;68.22;97491.97;5071112;28;20032;-72
2021/08/20 04:56:31;;;;;;;17.80;7.88;;;;;;;15.92;67.82;97491.78;5070912;28;20024;-72
2021/08/20 04:58:56;;;;;;;14.52;7.20;;;;;;;15.94;67.44;97497.91;5069991;28;20476;-72
2021/08/20 05:01:22;;;;;;;16.88;7.40;;;;;;;15.92;67.56;97505.28;5069717;28;20473;-72
2021/08/20 05:03:48;;;;;;;21.73;7.85;;;;;;;16.07;67.07;97503.97;5053060;28;20035;-72
2021/08/20 05:06:14;;;;;;;19.90;7.90;;;;;;;16.22;66.79;97505.38;5069836;28;20071;-72
2021/08/20 05:08:40;;;;;;;29.15;7.70;;;;;;;16.35;65.96;97506.03;5069652;28;20043;-72
2021/08/20 05:11:06;;;;;;;16.65;7.28;;;;;;;16.48;65.90;97509.41;5069652;28;20118;-71
2021/08/20 05:13:32;;;;;;;16.23;7.88;;;;;;;16.70;66.02;97511.13;5074640;28;20452;-72
2021/08/20 05:15:57;;;;;;;20.95;8.07;;;;;;;16.80;65.17;97507.47;5090522;28;20034;-71
2021/08/20 05:18:23;;;;;;;39.15;8.57;;;;;;;17.08;65.17;97502.34;5073500;28;20033;-71
2021/08/20 05:20:49;;;;;;;16.42;7.15;;;;;;;17.18;62.73;97505.94;5074845;28;20403;-72
2021/08/20 05:23:14;;;;;;;27.45;7.78;;;;;;;17.25;62.91;97501.72;5073342;28;20036;-73
2021/08/20 05:25:40;;;;;;;15.18;7.00;;;;;;;17.48;62.04;97507.72;5073119;28;20047;-72
2021/08/20 05:28:08;;;;;;;16.15;6.78;;;;;;;17.63;62.66;97511.78;5073499;28;20028;-73
2021/08/20 05:30:35;;;;;;;16.05;6.65;;;;;;;18.06;61.40;97509.56;5074383;28;20468;-70
2021/08/20 05:33:00;;;;;;;16.20;6.53;;;;;;;18.38;58.34;97512.84;5073430;28;20105;-71
2021/08/20 05:35:26;;;;;;;20.77;6.70;;;;;;;18.49;57.94;97501.00;5073281;28;20476;-71
2021/08/20 05:37:51;;;;;;;95.05;13.63;;;;;;;19.56;55.91;97508.66;5056575;28;20028;-71
2021/08/20 05:40:17;;;;;;;58.92;17.50;;;;;;;21.86;48.89;97500.03;5073203;28;20158;-71
2021/08/20 05:42:43;;;;;;;182.48;33.55;;;;;;;23.37;44.92;97503.94;5072889;28;20408;-72
2021/08/20 05:45:09;;;;;;;145.88;28.63;;;;;;;24.66;41.70;97497.78;5074202;28;20028;-71
2021/08/20 05:47:35;;;;;;;147.05;23.38;;;;;;;25.40;39.44;97496.03;5072903;28;20052;-71
2021/08/20 05:50:01;;;;;;;52.67;15.32;;;;;;;26.70;36.67;97495.97;5074191;28;20020;-71
2021/08/20 05:52:27;;;;;;;61.03;32.00;;;;;;;27.32;35.08;97487.78;5073822;28;20031;-74
2021/08/20 05:54:52;;;;;;;25.40;6.25;;;;;;;27.82;33.91;97495.72;5073129;28;20384;-73
2021/08/20 05:57:18;;;;;;;12.00;4.80;;;;;;;29.08;31.90;97489.50;5073103;28;20063;-72
2021/08/20 05:59:44;;;;;;;16.05;6.05;;;;;;;29.76;31.21;97488.13;5072724;28;20029;-72
2021/08/20 06:02:09;;;;;;;28.95;6.00;;;;;;;30.61;29.35;97475.84;5074036;28;20032;-72
2021/08/20 06:04:36;;;;;;;14.75;5.68;;;;;;;31.26;28.88;97468.13;5072755;28;20097;-72
2021/08/20 06:07:01;;;;;;;26.90;6.05;;;;;;;31.56;27.77;97469.13;5072642;28;20020;-73
2021/08/20 06:09:27;;;;;;;16.67;5.30;;;;;;;31.52;27.32;97465.13;5073679;28;20037;-70
2021/08/20 06:11:53;;;;;;;18.05;5.50;;;;;;;31.55;27.43;97451.69;5072806;28;20400;-70
2021/08/20 06:14:18;;;;;;;26.17;7.43;;;;;;;32.35;26.83;97457.94;5073642;28;20499;-73
2021/08/20 06:16:44;;;;;;;22.50;7.20;;;;;;;33.27;25.60;97456.50;5073314;28;20029;-72
2021/08/20 06:19:09;;;;;;;28.02;13.50;;;;;;;33.64;25.14;97457.13;5055723;28;20036;-72
2021/08/20 06:21:35;;;;;;;29.40;6.57;;;;;;;33.71;24.81;97446.75;5073069;28;20028;-71
2021/08/20 06:24:00;;;;;;;15.32;5.57;;;;;;;34.04;23.98;97448.84;5072446;28;20045;-70
2021/08/20 06:26:26;;;;;;;20.50;7.47;;;;;;;33.59;24.46;97449.56;5072511;28;20036;-71
2021/08/20 06:28:51;;;;;;;13.75;6.03;;;;;;;33.43;24.49;97450.25;5072116;28;20103;-73
2021/08/20 06:31:20;;;;;;;34.42;5.68;;;;;;;32.91;25.20;97445.59;5074035;28;20024;-74
2021/08/20 06:36:32;;;;;;;15.10;4.30;;;;;;;33.55;24.11;97451.06;5086895;28;20112;-75
2021/08/20 06:38:58;;;;;;;11.48;4.20;;;;;;;34.04;23.95;97446.06;5071012;28;20462;-77
2021/08/20 06:41:23;;;;;;;16.92;6.60;;;;;;;34.47;23.56;97451.13;5053451;28;20600;-72
2021/08/20 06:43:49;;;;;;;17.42;5.32;;;;;;;35.20;22.89;97456.66;5070577;28;20424;-71
2021/08/20 06:46:14;;;;;;;8.18;4.22;;;;;;;34.02;23.39;97443.53;5070289;28;20472;-74
2021/08/20 06:48:40;;;;;;;13.73;4.47;;;;;;;34.65;22.94;97453.72;5052718;28;20458;-72
2021/08/20 06:51:05;;;;;;;1999.90;205.07;;;;;;;33.70;23.97;97447.81;5053290;28;20028;-72
2021/08/20 06:53:37;;;;;;;740.80;43.22;;;;;;;33.48;24.45;97447.56;5069760;28;20036;-72
2021/08/20 06:56:03;;;;;;;291.52;17.48;;;;;;;32.55;25.48;97452.94;5070027;28;20085;-72
2021/08/20 06:58:28;;;;;;;7.00;3.65;;;;;;;32.52;25.10;97452.56;5070062;28;20393;-71
2021/08/20 07:00:54;;;;;;;8.93;4.05;;;;;;;33.43;24.65;97455.78;5077821;28;20036;-74
2021/08/20 07:03:19;;;;;;;8.43;4.85;;;;;;;34.20;23.52;97454.50;5069449;28;20439;-71
2021/08/20 07:05:45;;;;;;;9.60;3.97;;;;;;;34.64;23.24;97450.09;5069579;28;20037;-71
2021/08/20 07:08:10;;;;;;;16.10;4.50;;;;;;;35.10;22.80;97439.81;5069401;28;20086;-72
2021/08/20 07:10:36;;;;;;;10.07;3.70;;;;;;;34.11;22.95;97436.53;5052612;28;20483;-72
2021/08/20 07:13:02;;;;;;;5.45;3.28;;;;;;;34.23;23.00;97439.25;5069494;28;20025;-72
2021/08/20 07:15:27;;;;;;;15.07;4.13;;;;;;;35.74;21.64;97441.94;5069322;28;20040;-72
2021/08/20 07:17:53;;;;;;;17.15;3.80;;;;;;;35.44;21.45;97447.00;5070346;28;20032;-72
2021/08/20 07:20:18;;;;;;;12.02;4.05;;;;;;;35.66;21.34;97436.78;5069702;28;20028;-72
2021/08/20 07:22:44;;;;;;;12.13;3.67;;;;;;;36.70;20.86;97445.91;5068994;28;20024;-73
2021/08/20 07:25:10;;;;;;;9.35;3.53;;;;;;;34.12;22.72;97446.53;5069034;28;20040;-73
2021/08/20 07:27:36;;;;;;;12.65;4.05;;;;;;;33.99;23.53;97452.38;5068907;28;20043;-72
2021/08/20 07:30:02;;;;;;;7.40;3.63;;;;;;;35.62;21.63;97445.94;5070275;28;20036;-72
2021/08/20 07:32:27;;;;;;;8.20;3.78;;;;;;;36.06;21.85;97457.97;5070209;28;20028;-72
2021/08/20 07:34:53;;;;;;;20.33;3.35;;;;;;;37.06;21.05;97449.06;5076947;28;20066;-72
2021/08/20 07:37:18;;;;;;;9.40;4.10;;;;;;;36.43;21.38;97453.41;5068979;28;20120;-72
2021/08/20 07:39:44;;;;;;;7.18;3.47;;;;;;;36.02;21.99;97448.44;5068789;28;20094;-72
2021/08/20 07:42:09;;;;;;;9.27;3.58;;;;;;;36.99;21.20;97459.59;5068989;28;20024;-72
2021/08/20 07:44:35;;;;;;;11.75;4.05;;;;;;;37.40;20.84;97448.53;5070162;28;20032;-72
2021/08/20 07:47:01;;;;;;;6.70;3.97;;;;;;;36.83;21.65;97451.06;5068195;28;20062;-72
2021/08/20 07:49:29;;;;;;;12.32;3.92;;;;;;;36.21;21.95;97452.59;5052062;28;20035;-72
2021/08/20 07:51:56;;;;;;;6.28;4.00;;;;;;;35.85;22.76;97449.31;5051930;28;20036;-73
2021/08/20 07:54:21;;;;;;;6.28;3.83;;;;;;;37.37;21.63;97442.63;5069647;28;20065;-73
2021/08/20 07:56:47;;;;;;;7.15;4.00;;;;;;;37.25;20.99;97436.41;5069376;28;20029;-74
2021/08/20 07:59:13;;;;;;;17.73;3.55;;;;;;;36.89;21.73;97450.00;5069634;28;20032;-73
2021/08/20 08:01:39;;;;;;;7.05;3.50;;;;;;;37.15;21.30;97437.16;5068225;28;20043;-72
2021/08/20 08:04:04;;;;;;;6.18;3.72;;;;;;;35.84;22.75;97430.91;5068281;28;20036;-73
2021/08/20 08:06:30;;;;;;;6.25;3.65;;;;;;;37.47;21.22;97432.38;5068103;28;20089;-72
2021/08/20 08:08:56;;;;;;;12.10;3.88;;;;;;;37.78;20.99;97433.41;5068190;28;20046;-72
2021/08/20 08:11:22;;;;;;;9.70;4.07;;;;;;;38.46;20.28;97425.91;5051879;28;20476;-72
2021/08/20 08:13:47;;;;;;;12.18;3.40;;;;;;;38.19;20.42;97430.84;5051574;28;20090;-72
2021/08/20 08:16:13;;;;;;;4.25;3.83;;;;;;;39.57;19.06;97431.63;5067758;28;20060;-72
2021/08/20 08:18:39;;;;;;;4.03;3.55;;;;;;;39.77;18.92;97413.97;5068232;28;20043;-73
2021/08/20 08:21:04;;;;;;;15.57;4.15;;;;;;;40.62;18.71;97421.19;5067763;28;20044;-72
2021/08/20 08:23:30;;;;;;;10.60;4.07;;;;;;;40.41;17.88;97408.38;5069140;28;20534;-71
2021/08/20 08:25:56;;;;;;;59.10;8.68;;;;;;;40.21;18.31;97419.72;5067440;28;20044;-72
2021/08/20 08:28:22;;;;;;;11.52;3.80;;;;;;;40.86;16.72;97405.28;5069034;28;20081;-72
2021/08/20 08:30:49;;;;;;;6.40;3.50;;;;;;;41.81;16.46;97410.41;5068217;28;20135;-71
2021/08/20 08:33:15;;;;;;;7.97;3.20;;;;;;;42.04;16.31;97412.38;5084470;28;20517;-72
2021/08/20 08:35:41;;;;;;;9.55;3.40;;;;;;;41.74;16.11;97410.72;5067912;28;20052;-71
2021/08/20 08:38:10;;;;;;;5.13;3.33;;;;;;;39.41;17.47;97399.19;5067729;28;20067;-72
2021/08/20 08:40:37;;;;;;;5.22;3.33;;;;;;;40.00;17.36;97402.94;5067800;28;20032;-73
2021/08/20 08:43:04;;;;;;;14.35;4.00;;;;;;;40.05;17.40;97402.94;5067667;28;20029;-71
2021/08/20 08:45:30;;;;;;;8.82;3.15;;;;;;;38.95;17.41;97382.38;5067651;28;20048;-72
2021/08/20 08:47:56;;;;;;;8.82;3.50;;;;;;;39.89;16.58;97395.72;5067182;28;20037;-71
2021/08/20 08:50:23;;;;;;;10.93;3.78;;;;;;;39.70;17.07;97397.44;5084393;28;20033;-71
2021/08/20 08:52:49;;;;;;;10.27;3.50;;;;;;;40.61;16.82;97397.06;5084382;28;20094;-73
2021/08/20 08:55:15;;;;;;;5.65;3.72;;;;;;;40.14;16.86;97379.94;5084164;28;20028;-72
2021/08/20 08:57:40;;;;;;;5.05;3.67;;;;;;;40.18;17.24;97389.44;5068701;28;20036;-72
2021/08/20 09:00:07;;;;;;;8.63;3.53;;;;;;;41.49;16.02;97385.69;5050499;28;20059;-73
2021/08/20 09:02:34;;;;;;;13.10;3.70;;;;;;;41.37;16.26;97390.88;5067717;28;20081;-73
2021/08/20 09:05:10;;;;;;;9.02;2.90;;;;;;;41.10;16.54;97380.97;5050820;28;20032;-72
2021/08/20 09:07:37;;;;;;;5.90;3.65;;;;;;;41.06;16.39;97379.91;5067614;28;20036;-72
2021/08/20 09:10:10;;;;;;;7.15;3.40;;;;;;;41.93;16.47;97385.53;5084249;28;20500;-72
2021/08/20 09:12:36;;;;;;;12.35;5.43;;;;;;;41.00;17.20;97374.63;5050320;28;20024;-72
2021/08/20 09:15:02;;;;;;;8.32;5.00;;;;;;;41.40;16.23;97376.25;5067202;28;20407;-72
2021/08/20 09:17:35;;;;;;;10.50;4.03;;;;;;;41.09;16.52;97365.28;5067060;28;20040;-72
2021/08/20 09:20:19;;;;;;;6.68;3.90;;;;;;;40.34;17.08;97379.81;5067402;28;20468;-72
2021/08/20 09:22:45;;;;;;;10.05;3.20;;;;;;;39.42;18.20;97372.84;5068087;28;20108;-71
2021/08/20 09:25:30;;;;;;;11.05;6.15;;;;;;;40.42;17.43;97373.59;5074064;28;20148;-71
2021/08/20 09:28:14;;;;;;;10.35;4.35;;;;;;;40.16;17.33;97374.88;5068057;28;20020;-71
2021/08/20 09:30:41;;;;;;;5.60;3.72;;;;;;;39.88;17.57;97367.94;5067857;28;20020;-72
2021/08/20 09:33:12;;;;;;;9.07;3.60;;;;;;;40.65;17.53;97369.25;5068243;28;20107;-72
2021/08/20 09:35:39;;;;;;;8.68;3.75;;;;;;;41.66;16.45;97374.81;5065907;28;20023;-72
2021/08/20 09:38:10;;;;;;;5.90;3.50;;;;;;;42.09;16.27;97370.94;5083931;28;20095;-72
2021/08/20 09:40:36;;;;;;;8.45;4.93;;;;;;;41.89;16.67;97362.78;5066848;28;20099;-72
2021/08/20 09:43:23;;;;;;;5.30;3.83;;;;;;;41.68;16.62;97357.69;5050102;28;20036;-72
2021/08/20 09:46:04;;;;;;;10.32;3.70;;;;;;;41.21;16.97;97344.38;5066723;28;20067;-72
2021/08/20 09:48:43;;;;;;;5.25;3.63;;;;;;;42.21;16.17;97359.28;5066660;28;20032;-72
2021/08/20 09:51:10;;;;;;;6.55;3.70;;;;;;;42.92;15.57;97346.94;5067929;28;20027;-72
2021/08/20 09:53:36;;;;;;;6.22;3.78;;;;;;;42.68;16.10;97352.69;5066757;28;20075;-73
2021/08/20 09:56:04;;;;;;;9.15;4.00;;;;;;;42.16;16.08;97340.47;5050073;28;20059;-72
2021/08/20 09:58:34;;;;;;;11.50;4.38;;;;;;;41.60;16.36;97340.31;5085764;28;20059;-72
2021/08/20 10:01:04;;;;;;;7.97;3.65;;;;;;;42.44;16.25;97332.22;5087130;28;20032;-73
2021/08/20 10:03:33;;;;;;;8.50;3.50;;;;;;;42.38;15.85;97328.66;5071388;28;20480;-73
2021/08/20 10:06:00;;;;;;;12.77;4.28;;;;;;;42.29;16.09;97330.50;5086871;28;20040;-73
2021/08/20 10:08:27;;;;;;;10.45;3.50;;;;;;;42.62;15.81;97326.63;5070466;28;20030;-72
2021/08/20 10:10:54;;;;;;;19.75;4.28;;;;;;;43.25;15.47;97328.09;5053443;28;20719;-73
2021/08/20 10:13:21;;;;;;;4.78;3.78;;;;;;;43.72;15.53;97328.59;5070268;28;20032;-72
2021/08/20 10:15:47;;;;;;;8.35;3.60;;;;;;;44.36;14.65;97331.50;5069788;28;20119;-74
2021/08/20 10:18:15;;;;;;;5.97;3.58;;;;;;;44.07;14.67;97321.38;5069709;28;20107;-73
2021/08/20 10:20:42;;;;;;;12.85;4.70;;;;;;;43.18;15.70;97323.72;5069950;28;20060;-74
2021/08/20 10:23:11;;;;;;;11.20;4.75;;;;;;;44.09;15.08;97324.72;5069445;28;20032;-72
2021/08/20 10:25:37;;;;;;;21.20;4.40;;;;;;;42.89;16.19;97313.78;5086475;28;20120;-72
2021/08/20 10:28:03;;;;;;;8.48;4.13;;;;;;;43.88;15.01;97317.00;5069654;28;20073;-74
2021/08/20 10:30:29;;;;;;;10.20;4.82;;;;;;;44.00;15.09;97315.34;5069655;28;20105;-73
2021/08/20 10:33:01;;;;;;;10.25;4.55;;;;;;;41.69;16.16;97308.78;5069579;28;20021;-74
2021/08/20 10:35:53;;;;;;;5.70;3.80;;;;;;;41.64;16.71;97304.03;5069730;28;20510;-75
2021/08/20 10:38:36;;;;;;;15.65;4.65;;;;;;;42.66;16.15;97310.81;5052843;28;20029;-73
2021/08/20 10:41:12;;;;;;;15.38;4.53;;;;;;;41.67;16.62;97309.06;5061799;28;20040;-72
2021/08/20 10:44:03;;;;;;;7.13;4.20;;;;;;;43.01;15.61;97311.38;5071685;28;20021;-72
2021/08/20 10:46:34;;;;;;;;;;;;;;;42.85;15.52;97299.50;5066302;28;20028;-72
2021/08/20 10:49:30;;;;;;;5.75;3.53;;;;;;;44.48;14.09;97295.94;5072975;28;20390;-73
2021/08/20 10:52:01;;;;;;;8.63;3.65;;;;;;;45.45;13.88;97288.66;5071584;28;20109;-74
2021/08/20 10:54:33;;;;;;;8.35;3.65;;;;;;;45.65;13.43;97280.44;5072767;28;20024;-73
2021/08/20 10:57:03;;;;;;;7.53;3.28;;;;;;;45.19;13.46;97278.00;5072846;28;20036;-74
2021/08/20 10:59:43;;;;;;;3.45;3.00;;;;;;;43.34;14.82;97273.53;5071617;28;20095;-74
2021/08/20 11:02:18;;;;;;;10.45;3.72;;;;;;;42.62;15.49;97272.31;5072650;28;20077;-74
2021/08/20 11:05:08;;;;;;;10.77;4.05;;;;;;;40.92;16.74;97266.56;5071478;28;20045;-72
2021/08/20 11:07:43;;;;;;;11.50;3.67;;;;;;;41.98;15.55;97265.38;5072812;28;20036;-73
2021/08/20 11:10:08;;;;;;;4.15;3.10;;;;;;;40.93;16.91;97254.25;5071889;28;20266;-73
2021/08/20 11:12:53;;;;;;;7.18;3.63;;;;;;;40.73;16.62;97256.41;5071559;28;20390;-73
2021/08/20 11:15:19;;;;;;;56.38;5.28;;;;;;;40.27;17.47;97262.34;5072360;28;20476;-72
2021/08/20 11:18:00;;;;;;;10.65;3.53;;;;;;;41.34;16.51;97257.44;5072613;28;20024;-72
2021/08/20 11:20:37;;;;;;;8.00;3.80;;;;;;;42.05;16.04;97262.19;5071110;28;20054;-72
2021/08/20 11:23:09;;;;;;;6.70;3.70;;;;;;;42.31;15.94;97251.41;5070889;28;20031;-72
2021/08/20 11:25:58;;;;;;;6.18;3.58;;;;;;;42.13;16.04;97264.31;5071063;28;20040;-72
2021/08/20 11:28:32;;;;;;;8.93;3.65;;;;;;;42.39;15.79;97247.91;5070917;28;20055;-72
2021/08/20 11:31:08;;;;;;;5.93;3.45;;;;;;;43.93;14.57;97250.06;5070777;28;20561;-72
2021/08/20 11:33:38;;;;;;;6.15;3.92;;;;;;;43.32;14.70;97244.81;5071103;28;20028;-73